sensor_id;sensor_type;location;lat;lon;timestamp;P1;durP1;ratioP1;P2;durP2;ratioP2
48651;SDS011;34442;52.362;-1.302;2023-11-21T00:00:30;4.28;;;2.35;;
48651;SDS011;34442;52.362;-1.302;2023-11-21T00:02:55;5.07;;;2.20;;
48651;SDS011;34442;52.362;-1.302;2023-11-21T00:05:21;5.00;;;2.83;;
48651;SDS011;34442;52.362;-1.302;2023-11-21T00:07:48;6.40;;;2.42;;
48651;SDS011;34442;52.362;-1.302;2023-11-21T00:10:13;5.15;;;2.33;;
48651;SDS011;34442;52.362;-1.302;2023-11-21T00:12:39;3.65;;;1.98;;
48651;SDS011;34442;52.362;-1.302;2023-11-21T00:15:07;6.40;;;3.33;;
48651;SDS011;34442;52.362;-1.302;2023-11-21T00:17:36;4.38;;;2.67;;
48651;SDS011;34442;52.362;-1.302;2023-11-21T00:20:03;5.53;;;3.42;;
48651;SDS011;34442;52.362;-1.302;2023-11-21T00:22:31;4.45;;;2.80;;
48651;SDS011;34442;52.362;-1.302;2023-11-21T00:25:00;4.70;;;2.28;;
48651;SDS011;34442;52.362;-1.302;2023-11-21T00:27:28;4.75;;;2.53;;
48651;SDS011;34442;52.362;-1.302;2023-11-21T00:29:54;4.03;;;2.17;;
48651;SDS011;34442;52.362;-1.302;2023-11-21T00:32:20;5.82;;;3.05;;
48651;SDS011;34442;52.362;-1.302;2023-11-21T00:34:45;5.10;;;2.72;;
48651;SDS011;34442;52.362;-1.302;2023-11-21T00:37:14;5.10;;;2.90;;
48651;SDS011;34442;52.362;-1.302;2023-11-21T00:39:39;4.47;;;2.25;;
48651;SDS011;34442;52.362;-1.302;2023-11-21T00:42:05;5.95;;;2.90;;
48651;SDS011;34442;52.362;-1.302;2023-11-21T00:44:30;4.43;;;2.13;;
48651;SDS011;34442;52.362;-1.302;2023-11-21T00:46:56;5.63;;;3.35;;
48651;SDS011;34442;52.362;-1.302;2023-11-21T00:49:21;4.75;;;2.47;;
48651;SDS011;34442;52.362;-1.302;2023-11-21T00:51:47;4.60;;;2.15;;
48651;SDS011;34442;52.362;-1.302;2023-11-21T00:54:12;5.38;;;2.95;;
48651;SDS011;34442;52.362;-1.302;2023-11-21T00:56:37;4.57;;;2.80;;
48651;SDS011;34442;52.362;-1.302;2023-11-21T00:59:03;4.00;;;2.00;;
48651;SDS011;34442;52.362;-1.302;2023-11-21T01:01:30;3.70;;;2.15;;
48651;SDS011;34442;52.362;-1.302;2023-11-21T01:03:55;3.40;;;2.22;;
48651;SDS011;34442;52.362;-1.302;2023-11-21T01:06:21;4.32;;;2.53;;
48651;SDS011;34442;52.362;-1.302;2023-11-21T01:08:46;3.33;;;1.90;;
48651;SDS011;34442;52.362;-1.302;2023-11-21T01:11:12;3.65;;;2.00;;
48651;SDS011;34442;52.362;-1.302;2023-11-21T01:13:40;3.55;;;1.75;;
48651;SDS011;34442;52.362;-1.302;2023-11-21T01:16:06;5.85;;;2.40;;
48651;SDS011;34442;52.362;-1.302;2023-11-21T01:18:32;4.53;;;1.40;;
48651;SDS011;34442;52.362;-1.302;2023-11-21T01:20:58;2.88;;;1.70;;
48651;SDS011;34442;52.362;-1.302;2023-11-21T01:23:25;3.10;;;1.60;;
48651;SDS011;34442;52.362;-1.302;2023-11-21T01:25:51;2.85;;;1.60;;
48651;SDS011;34442;52.362;-1.302;2023-11-21T01:28:18;2.45;;;1.40;;
48651;SDS011;34442;52.362;-1.302;2023-11-21T01:30:44;2.42;;;1.48;;
48651;SDS011;34442;52.362;-1.302;2023-11-21T01:33:10;2.45;;;1.45;;
48651;SDS011;34442;52.362;-1.302;2023-11-21T01:35:36;2.90;;;1.70;;
48651;SDS011;34442;52.362;-1.302;2023-11-21T01:38:01;3.08;;;1.52;;
48651;SDS011;34442;52.362;-1.302;2023-11-21T01:40:27;2.78;;;1.40;;
48651;SDS011;34442;52.362;-1.302;2023-11-21T01:42:53;3.28;;;1.88;;
48651;SDS011;34442;52.362;-1.302;2023-11-21T01:45:19;2.55;;;1.60;;
48651;SDS011;34442;52.362;-1.302;2023-11-21T01:47:45;2.55;;;1.50;;
48651;SDS011;34442;52.362;-1.302;2023-11-21T01:50:13;3.92;;;1.70;;
48651;SDS011;34442;52.362;-1.302;2023-11-21T01:52:41;3.22;;;1.70;;
48651;SDS011;34442;52.362;-1.302;2023-11-21T01:55:08;2.08;;;1.50;;
48651;SDS011;34442;52.362;-1.302;2023-11-21T01:57:35;2.25;;;1.50;;
48651;SDS011;34442;52.362;-1.302;2023-11-21T02:00:02;2.95;;;1.70;;
48651;SDS011;34442;52.362;-1.302;2023-11-21T02:02:43;3.15;;;1.80;;
48651;SDS011;34442;52.362;-1.302;2023-11-21T02:05:10;3.70;;;1.83;;
48651;SDS011;34442;52.362;-1.302;2023-11-21T02:07:37;2.45;;;1.40;;
48651;SDS011;34442;52.362;-1.302;2023-11-21T02:10:04;1.88;;;1.33;;
48651;SDS011;34442;52.362;-1.302;2023-11-21T02:12:30;2.05;;;1.30;;
48651;SDS011;34442;52.362;-1.302;2023-11-21T02:14:56;2.15;;;1.42;;
48651;SDS011;34442;52.362;-1.302;2023-11-21T02:17:21;1.60;;;1.35;;
48651;SDS011;34442;52.362;-1.302;2023-11-21T02:19:46;1.48;;;1.15;;
48651;SDS011;34442;52.362;-1.302;2023-11-21T02:22:16;2.95;;;1.45;;
48651;SDS011;34442;52.362;-1.302;2023-11-21T02:24:45;1.70;;;1.20;;
48651;SDS011;34442;52.362;-1.302;2023-11-21T02:27:12;2.60;;;1.50;;
48651;SDS011;34442;52.362;-1.302;2023-11-21T02:32:11;0.93;;;0.90;;
48651;SDS011;34442;52.362;-1.302;2023-11-21T02:34:36;2.00;;;1.10;;
48651;SDS011;34442;52.362;-1.302;2023-11-21T02:37:03;1.52;;;1.10;;
48651;SDS011;34442;52.362;-1.302;2023-11-21T02:39:28;2.78;;;1.20;;
48651;SDS011;34442;52.362;-1.302;2023-11-21T02:41:53;1.63;;;1.30;;
48651;SDS011;34442;52.362;-1.302;2023-11-21T02:44:19;1.10;;;0.93;;
48651;SDS011;34442;52.362;-1.302;2023-11-21T02:46:44;1.98;;;1.40;;
48651;SDS011;34442;52.362;-1.302;2023-11-21T02:49:10;2.50;;;1.30;;
48651;SDS011;34442;52.362;-1.302;2023-11-21T02:51:36;1.58;;;1.20;;
48651;SDS011;34442;52.362;-1.302;2023-11-21T02:54:03;1.95;;;1.23;;
48651;SDS011;34442;52.362;-1.302;2023-11-21T02:56:31;1.55;;;1.00;;
48651;SDS011;34442;52.362;-1.302;2023-11-21T02:58:59;1.60;;;1.00;;
48651;SDS011;34442;52.362;-1.302;2023-11-21T03:01:25;2.40;;;1.25;;
48651;SDS011;34442;52.362;-1.302;2023-11-21T03:03:51;1.50;;;1.00;;
48651;SDS011;34442;52.362;-1.302;2023-11-21T03:06:17;1.25;;;0.85;;
48651;SDS011;34442;52.362;-1.302;2023-11-21T03:08:43;1.15;;;0.90;;
48651;SDS011;34442;52.362;-1.302;2023-11-21T03:11:09;1.27;;;0.80;;
48651;SDS011;34442;52.362;-1.302;2023-11-21T03:13:34;2.20;;;0.98;;
48651;SDS011;34442;52.362;-1.302;2023-11-21T03:16:00;1.75;;;1.00;;
48651;SDS011;34442;52.362;-1.302;2023-11-21T03:18:25;1.42;;;0.85;;
48651;SDS011;34442;52.362;-1.302;2023-11-21T03:20:52;2.10;;;0.88;;
48651;SDS011;34442;52.362;-1.302;2023-11-21T03:23:18;1.95;;;0.98;;
48651;SDS011;34442;52.362;-1.302;2023-11-21T03:25:43;2.10;;;0.90;;
48651;SDS011;34442;52.362;-1.302;2023-11-21T03:28:09;0.70;;;0.70;;
48651;SDS011;34442;52.362;-1.302;2023-11-21T03:30:34;0.73;;;0.73;;
48651;SDS011;34442;52.362;-1.302;2023-11-21T03:33:00;0.80;;;0.80;;
48651;SDS011;34442;52.362;-1.302;2023-11-21T03:35:25;0.85;;;0.82;;
48651;SDS011;34442;52.362;-1.302;2023-11-21T03:37:51;1.60;;;0.95;;
48651;SDS011;34442;52.362;-1.302;2023-11-21T03:40:16;0.80;;;0.80;;
48651;SDS011;34442;52.362;-1.302;2023-11-21T03:42:45;1.13;;;0.80;;
48651;SDS011;34442;52.362;-1.302;2023-11-21T03:45:10;0.93;;;0.80;;
48651;SDS011;34442;52.362;-1.302;2023-11-21T03:47:37;1.38;;;0.80;;
48651;SDS011;34442;52.362;-1.302;2023-11-21T03:50:03;0.75;;;0.73;;
48651;SDS011;34442;52.362;-1.302;2023-11-21T03:52:28;0.80;;;0.80;;
48651;SDS011;34442;52.362;-1.302;2023-11-21T03:54:54;1.42;;;0.75;;
48651;SDS011;34442;52.362;-1.302;2023-11-21T03:57:20;0.85;;;0.80;;
48651;SDS011;34442;52.362;-1.302;2023-11-21T03:59:46;1.05;;;0.60;;
48651;SDS011;34442;52.362;-1.302;2023-11-21T04:02:12;2.88;;;0.80;;
48651;SDS011;34442;52.362;-1.302;2023-11-21T04:04:37;0.85;;;0.63;;
48651;SDS011;34442;52.362;-1.302;2023-11-21T04:07:03;0.70;;;0.70;;
48651;SDS011;34442;52.362;-1.302;2023-11-21T04:09:29;1.23;;;1.13;;
48651;SDS011;34442;52.362;-1.302;2023-11-21T04:11:54;0.82;;;0.70;;
48651;SDS011;34442;52.362;-1.302;2023-11-21T04:14:20;2.42;;;0.82;;
48651;SDS011;34442;52.362;-1.302;2023-11-21T04:16:46;1.60;;;0.70;;
48651;SDS011;34442;52.362;-1.302;2023-11-21T04:19:11;1.05;;;0.85;;
48651;SDS011;34442;52.362;-1.302;2023-11-21T04:21:40;2.80;;;0.63;;
48651;SDS011;34442;52.362;-1.302;2023-11-21T04:24:06;0.85;;;0.70;;
48651;SDS011;34442;52.362;-1.302;2023-11-21T04:26:31;0.60;;;0.60;;
48651;SDS011;34442;52.362;-1.302;2023-11-21T04:28:57;0.80;;;0.70;;
48651;SDS011;34442;52.362;-1.302;2023-11-21T04:31:22;2.05;;;0.80;;
48651;SDS011;34442;52.362;-1.302;2023-11-21T04:33:48;0.60;;;0.60;;
48651;SDS011;34442;52.362;-1.302;2023-11-21T04:36:13;0.52;;;0.52;;
48651;SDS011;34442;52.362;-1.302;2023-11-21T04:38:39;1.30;;;0.80;;
48651;SDS011;34442;52.362;-1.302;2023-11-21T04:41:08;0.98;;;0.50;;
48651;SDS011;34442;52.362;-1.302;2023-11-21T04:43:33;0.50;;;0.50;;
48651;SDS011;34442;52.362;-1.302;2023-11-21T04:45:59;1.10;;;0.80;;
48651;SDS011;34442;52.362;-1.302;2023-11-21T04:48:25;1.15;;;0.60;;
48651;SDS011;34442;52.362;-1.302;2023-11-21T04:50:50;0.65;;;0.55;;
48651;SDS011;34442;52.362;-1.302;2023-11-21T04:53:16;1.85;;;0.80;;
48651;SDS011;34442;52.362;-1.302;2023-11-21T04:55:42;0.68;;;0.55;;
48651;SDS011;34442;52.362;-1.302;2023-11-21T04:58:11;2.58;;;0.80;;
48651;SDS011;34442;52.362;-1.302;2023-11-21T05:00:37;0.68;;;0.60;;
48651;SDS011;34442;52.362;-1.302;2023-11-21T05:03:03;2.00;;;0.90;;
48651;SDS011;34442;52.362;-1.302;2023-11-21T05:05:29;2.08;;;0.80;;
48651;SDS011;34442;52.362;-1.302;2023-11-21T05:07:55;1.05;;;0.77;;
48651;SDS011;34442;52.362;-1.302;2023-11-21T05:10:20;0.60;;;0.60;;
48651;SDS011;34442;52.362;-1.302;2023-11-21T05:12:47;0.55;;;0.55;;
48651;SDS011;34442;52.362;-1.302;2023-11-21T05:15:14;1.17;;;0.68;;
48651;SDS011;34442;52.362;-1.302;2023-11-21T05:17:40;0.90;;;0.65;;
48651;SDS011;34442;52.362;-1.302;2023-11-21T05:20:14;0.50;;;0.50;;
48651;SDS011;34442;52.362;-1.302;2023-11-21T05:22:45;0.60;;;0.60;;
48651;SDS011;34442;52.362;-1.302;2023-11-21T05:25:11;0.60;;;0.50;;
48651;SDS011;34442;52.362;-1.302;2023-11-21T05:27:37;0.73;;;0.60;;
48651;SDS011;34442;52.362;-1.302;2023-11-21T05:30:03;0.80;;;0.60;;
48651;SDS011;34442;52.362;-1.302;2023-11-21T05:32:30;0.80;;;0.57;;
48651;SDS011;34442;52.362;-1.302;2023-11-21T05:34:56;0.75;;;0.60;;
48651;SDS011;34442;52.362;-1.302;2023-11-21T05:37:21;1.17;;;0.70;;
48651;SDS011;34442;52.362;-1.302;2023-11-21T05:39:48;2.15;;;0.63;;
48651;SDS011;34442;52.362;-1.302;2023-11-21T05:42:14;1.35;;;0.60;;
48651;SDS011;34442;52.362;-1.302;2023-11-21T05:44:41;0.80;;;0.60;;
48651;SDS011;34442;52.362;-1.302;2023-11-21T05:47:08;0.88;;;0.55;;
48651;SDS011;34442;52.362;-1.302;2023-11-21T05:49:36;0.65;;;0.60;;
48651;SDS011;34442;52.362;-1.302;2023-11-21T05:52:02;1.08;;;0.50;;
48651;SDS011;34442;52.362;-1.302;2023-11-21T05:54:27;0.63;;;0.60;;
48651;SDS011;34442;52.362;-1.302;2023-11-21T05:56:53;0.80;;;0.65;;
48651;SDS011;34442;52.362;-1.302;2023-11-21T05:59:19;0.60;;;0.60;;
48651;SDS011;34442;52.362;-1.302;2023-11-21T06:01:45;0.50;;;0.50;;
48651;SDS011;34442;52.362;-1.302;2023-11-21T06:04:11;0.60;;;0.60;;
48651;SDS011;34442;52.362;-1.302;2023-11-21T06:06:37;1.27;;;0.70;;
48651;SDS011;34442;52.362;-1.302;2023-11-21T06:09:04;1.27;;;0.70;;
48651;SDS011;34442;52.362;-1.302;2023-11-21T06:11:31;1.13;;;0.60;;
48651;SDS011;34442;52.362;-1.302;2023-11-21T06:13:56;3.00;;;1.20;;
48651;SDS011;34442;52.362;-1.302;2023-11-21T06:16:23;1.88;;;0.90;;
48651;SDS011;34442;52.362;-1.302;2023-11-21T06:18:48;2.67;;;0.90;;
48651;SDS011;34442;52.362;-1.302;2023-11-21T06:21:14;0.82;;;0.68;;
48651;SDS011;34442;52.362;-1.302;2023-11-21T06:23:44;0.73;;;0.60;;
48651;SDS011;34442;52.362;-1.302;2023-11-21T06:26:09;0.57;;;0.57;;
48651;SDS011;34442;52.362;-1.302;2023-11-21T06:28:35;1.40;;;0.68;;
48651;SDS011;34442;52.362;-1.302;2023-11-21T06:31:03;0.90;;;0.57;;
48651;SDS011;34442;52.362;-1.302;2023-11-21T06:33:33;0.55;;;0.52;;
48651;SDS011;34442;52.362;-1.302;2023-11-21T06:35:59;2.20;;;0.60;;
48651;SDS011;34442;52.362;-1.302;2023-11-21T06:38:27;0.88;;;0.70;;
48651;SDS011;34442;52.362;-1.302;2023-11-21T06:40:54;0.50;;;0.50;;
48651;SDS011;34442;52.362;-1.302;2023-11-21T06:43:21;1.55;;;0.75;;
48651;SDS011;34442;52.362;-1.302;2023-11-21T06:45:47;0.80;;;0.80;;
48651;SDS011;34442;52.362;-1.302;2023-11-21T06:48:12;1.75;;;0.68;;
48651;SDS011;34442;52.362;-1.302;2023-11-21T06:50:41;1.23;;;1.00;;
48651;SDS011;34442;52.362;-1.302;2023-11-21T06:53:06;2.00;;;0.93;;
48651;SDS011;34442;52.362;-1.302;2023-11-21T06:55:32;1.27;;;1.00;;
48651;SDS011;34442;52.362;-1.302;2023-11-21T06:57:58;0.93;;;0.80;;
48651;SDS011;34442;52.362;-1.302;2023-11-21T07:00:25;1.30;;;0.90;;
48651;SDS011;34442;52.362;-1.302;2023-11-21T07:02:52;1.63;;;1.00;;
48651;SDS011;34442;52.362;-1.302;2023-11-21T07:05:18;2.83;;;1.20;;
48651;SDS011;34442;52.362;-1.302;2023-11-21T07:07:46;1.08;;;1.00;;
48651;SDS011;34442;52.362;-1.302;2023-11-21T07:10:16;0.90;;;0.88;;
48651;SDS011;34442;52.362;-1.302;2023-11-21T07:12:42;0.70;;;0.70;;
48651;SDS011;34442;52.362;-1.302;2023-11-21T07:15:07;2.15;;;1.02;;
48651;SDS011;34442;52.362;-1.302;2023-11-21T07:17:36;1.67;;;0.93;;
48651;SDS011;34442;52.362;-1.302;2023-11-21T07:20:02;0.95;;;0.85;;
48651;SDS011;34442;52.362;-1.302;2023-11-21T07:22:28;0.98;;;0.80;;
48651;SDS011;34442;52.362;-1.302;2023-11-21T07:24:56;1.88;;;0.88;;
48651;SDS011;34442;52.362;-1.302;2023-11-21T07:27:22;1.42;;;0.93;;
48651;SDS011;34442;52.362;-1.302;2023-11-21T07:29:47;0.73;;;0.73;;
48651;SDS011;34442;52.362;-1.302;2023-11-21T07:32:13;0.98;;;0.90;;
48651;SDS011;34442;52.362;-1.302;2023-11-21T07:34:40;1.67;;;0.90;;
48651;SDS011;34442;52.362;-1.302;2023-11-21T07:37:06;1.77;;;1.00;;
48651;SDS011;34442;52.362;-1.302;2023-11-21T07:39:32;2.45;;;1.15;;
48651;SDS011;34442;52.362;-1.302;2023-11-21T07:41:57;1.67;;;0.90;;
48651;SDS011;34442;52.362;-1.302;2023-11-21T07:44:23;1.00;;;0.77;;
48651;SDS011;34442;52.362;-1.302;2023-11-21T07:46:48;2.50;;;1.02;;
48651;SDS011;34442;52.362;-1.302;2023-11-21T07:49:14;2.10;;;1.00;;
48651;SDS011;34442;52.362;-1.302;2023-11-21T07:51:41;1.08;;;0.85;;
48651;SDS011;34442;52.362;-1.302;2023-11-21T07:54:07;2.03;;;1.02;;
48651;SDS011;34442;52.362;-1.302;2023-11-21T07:56:32;1.15;;;1.00;;
48651;SDS011;34442;52.362;-1.302;2023-11-21T07:58:58;1.45;;;0.93;;
48651;SDS011;34442;52.362;-1.302;2023-11-21T08:01:23;1.48;;;0.80;;
48651;SDS011;34442;52.362;-1.302;2023-11-21T08:03:49;1.50;;;1.00;;
48651;SDS011;34442;52.362;-1.302;2023-11-21T08:06:17;0.98;;;0.75;;
48651;SDS011;34442;52.362;-1.302;2023-11-21T08:08:42;1.33;;;1.00;;
48651;SDS011;34442;52.362;-1.302;2023-11-21T08:11:08;0.88;;;0.80;;
48651;SDS011;34442;52.362;-1.302;2023-11-21T08:13:35;1.63;;;1.13;;
48651;SDS011;34442;52.362;-1.302;2023-11-21T08:16:00;0.88;;;0.85;;
48651;SDS011;34442;52.362;-1.302;2023-11-21T08:18:30;1.45;;;1.02;;
48651;SDS011;34442;52.362;-1.302;2023-11-21T08:20:55;1.33;;;1.00;;
48651;SDS011;34442;52.362;-1.302;2023-11-21T08:23:21;1.25;;;0.90;;
48651;SDS011;34442;52.362;-1.302;2023-11-21T08:25:50;1.35;;;1.00;;
48651;SDS011;34442;52.362;-1.302;2023-11-21T08:28:15;1.85;;;1.00;;
48651;SDS011;34442;52.362;-1.302;2023-11-21T08:30:41;1.42;;;0.88;;
48651;SDS011;34442;52.362;-1.302;2023-11-21T08:33:07;3.05;;;1.40;;
48651;SDS011;34442;52.362;-1.302;2023-11-21T08:35:33;2.08;;;1.10;;
48651;SDS011;34442;52.362;-1.302;2023-11-21T08:37:59;1.65;;;1.10;;
48651;SDS011;34442;52.362;-1.302;2023-11-21T08:40:24;2.35;;;1.23;;
48651;SDS011;34442;52.362;-1.302;2023-11-21T08:42:50;1.67;;;1.00;;
48651;SDS011;34442;52.362;-1.302;2023-11-21T08:45:17;2.90;;;1.00;;
48651;SDS011;34442;52.362;-1.302;2023-11-21T08:47:47;1.65;;;0.90;;
48651;SDS011;34442;52.362;-1.302;2023-11-21T08:50:12;1.42;;;0.90;;
48651;SDS011;34442;52.362;-1.302;2023-11-21T08:52:38;2.03;;;1.10;;
48651;SDS011;34442;52.362;-1.302;2023-11-21T08:55:05;1.80;;;1.00;;
48651;SDS011;34442;52.362;-1.302;2023-11-21T08:57:34;2.33;;;1.25;;
48651;SDS011;34442;52.362;-1.302;2023-11-21T09:00:01;1.70;;;1.00;;
48651;SDS011;34442;52.362;-1.302;2023-11-21T09:02:28;2.28;;;1.35;;
48651;SDS011;34442;52.362;-1.302;2023-11-21T09:04:56;1.90;;;1.20;;
48651;SDS011;34442;52.362;-1.302;2023-11-21T09:07:22;2.22;;;1.20;;
48651;SDS011;34442;52.362;-1.302;2023-11-21T09:09:48;2.78;;;1.40;;
48651;SDS011;34442;52.362;-1.302;2023-11-21T09:12:14;3.08;;;1.45;;
48651;SDS011;34442;52.362;-1.302;2023-11-21T09:14:39;1.08;;;0.93;;
48651;SDS011;34442;52.362;-1.302;2023-11-21T09:17:05;1.30;;;0.90;;
48651;SDS011;34442;52.362;-1.302;2023-11-21T09:19:38;1.63;;;1.10;;
48651;SDS011;34442;52.362;-1.302;2023-11-21T09:22:04;1.38;;;0.93;;
48651;SDS011;34442;52.362;-1.302;2023-11-21T09:24:30;1.00;;;0.90;;
48651;SDS011;34442;52.362;-1.302;2023-11-21T09:26:56;1.60;;;0.90;;
48651;SDS011;34442;52.362;-1.302;2023-11-21T09:29:22;1.55;;;1.00;;
48651;SDS011;34442;52.362;-1.302;2023-11-21T09:31:47;1.67;;;0.73;;
48651;SDS011;34442;52.362;-1.302;2023-11-21T09:34:13;1.42;;;0.80;;
48651;SDS011;34442;52.362;-1.302;2023-11-21T09:36:38;1.33;;;0.80;;
48651;SDS011;34442;52.362;-1.302;2023-11-21T09:39:04;0.90;;;0.70;;
48651;SDS011;34442;52.362;-1.302;2023-11-21T09:41:57;0.75;;;0.75;;
48651;SDS011;34442;52.362;-1.302;2023-11-21T09:47:14;0.98;;;0.73;;
48651;SDS011;34442;52.362;-1.302;2023-11-21T09:49:41;1.35;;;0.73;;
48651;SDS011;34442;52.362;-1.302;2023-11-21T09:52:11;0.60;;;0.60;;
48651;SDS011;34442;52.362;-1.302;2023-11-21T09:54:49;2.38;;;0.90;;
48651;SDS011;34442;52.362;-1.302;2023-11-21T09:57:15;1.33;;;0.82;;
48651;SDS011;34442;52.362;-1.302;2023-11-21T09:59:41;1.58;;;0.90;;
48651;SDS011;34442;52.362;-1.302;2023-11-21T10:02:08;1.23;;;0.80;;
48651;SDS011;34442;52.362;-1.302;2023-11-21T10:04:37;0.80;;;0.80;;
48651;SDS011;34442;52.362;-1.302;2023-11-21T10:07:03;1.55;;;0.82;;
48651;SDS011;34442;52.362;-1.302;2023-11-21T10:09:34;2.47;;;1.20;;
48651;SDS011;34442;52.362;-1.302;2023-11-21T10:12:03;1.02;;;0.80;;
48651;SDS011;34442;52.362;-1.302;2023-11-21T10:14:33;0.93;;;0.70;;
48651;SDS011;34442;52.362;-1.302;2023-11-21T10:17:02;1.52;;;0.70;;
48651;SDS011;34442;52.362;-1.302;2023-11-21T10:19:28;2.45;;;1.00;;
48651;SDS011;34442;52.362;-1.302;2023-11-21T10:21:54;2.30;;;1.15;;
48651;SDS011;34442;52.362;-1.302;2023-11-21T10:24:25;2.25;;;0.95;;
48651;SDS011;34442;52.362;-1.302;2023-11-21T10:26:51;1.83;;;1.00;;
48651;SDS011;34442;52.362;-1.302;2023-11-21T10:29:18;1.98;;;0.88;;
48651;SDS011;34442;52.362;-1.302;2023-11-21T10:31:48;2.63;;;1.10;;
48651;SDS011;34442;52.362;-1.302;2023-11-21T10:34:15;3.70;;;1.00;;
48651;SDS011;34442;52.362;-1.302;2023-11-21T10:36:42;1.55;;;0.88;;
48651;SDS011;34442;52.362;-1.302;2023-11-21T10:39:07;2.25;;;1.00;;
48651;SDS011;34442;52.362;-1.302;2023-11-21T10:41:34;2.67;;;0.90;;
48651;SDS011;34442;52.362;-1.302;2023-11-21T10:44:00;1.95;;;0.90;;
48651;SDS011;34442;52.362;-1.302;2023-11-21T10:46:29;1.35;;;0.95;;
48651;SDS011;34442;52.362;-1.302;2023-11-21T10:48:55;2.80;;;1.23;;
48651;SDS011;34442;52.362;-1.302;2023-11-21T10:51:22;4.60;;;1.27;;
48651;SDS011;34442;52.362;-1.302;2023-11-21T10:53:51;2.00;;;1.00;;
48651;SDS011;34442;52.362;-1.302;2023-11-21T10:56:17;3.08;;;1.27;;
48651;SDS011;34442;52.362;-1.302;2023-11-21T10:58:46;3.50;;;1.10;;
48651;SDS011;34442;52.362;-1.302;2023-11-21T11:01:13;3.90;;;1.20;;
48651;SDS011;34442;52.362;-1.302;2023-11-21T11:03:42;2.53;;;1.10;;
48651;SDS011;34442;52.362;-1.302;2023-11-21T11:06:09;2.00;;;0.90;;
48651;SDS011;34442;52.362;-1.302;2023-11-21T11:08:37;2.97;;;1.00;;
48651;SDS011;34442;52.362;-1.302;2023-11-21T11:11:04;2.58;;;0.90;;
48651;SDS011;34442;52.362;-1.302;2023-11-21T11:13:30;2.88;;;1.02;;
48651;SDS011;34442;52.362;-1.302;2023-11-21T11:16:00;2.45;;;1.02;;
48651;SDS011;34442;52.362;-1.302;2023-11-21T11:18:29;2.85;;;1.10;;
48651;SDS011;34442;52.362;-1.302;2023-11-21T11:21:04;4.32;;;1.38;;
48651;SDS011;34442;52.362;-1.302;2023-11-21T11:26:44;2.60;;;1.10;;
48651;SDS011;34442;52.362;-1.302;2023-11-21T11:37:29;2.90;;;1.08;;
48651;SDS011;34442;52.362;-1.302;2023-11-21T11:39:54;3.33;;;1.38;;
48651;SDS011;34442;52.362;-1.302;2023-11-21T11:42:20;1.73;;;1.00;;
48651;SDS011;34442;52.362;-1.302;2023-11-21T11:44:48;3.13;;;1.30;;
48651;SDS011;34442;52.362;-1.302;2023-11-21T11:47:23;2.47;;;0.95;;
48651;SDS011;34442;52.362;-1.302;2023-11-21T11:52:48;1.58;;;0.90;;
48651;SDS011;34442;52.362;-1.302;2023-11-21T11:55:16;1.67;;;0.90;;
48651;SDS011;34442;52.362;-1.302;2023-11-21T11:57:52;6.78;;;1.60;;
48651;SDS011;34442;52.362;-1.302;2023-11-21T12:03:02;3.42;;;1.30;;
48651;SDS011;34442;52.362;-1.302;2023-11-21T12:05:29;2.60;;;1.25;;
48651;SDS011;34442;52.362;-1.302;2023-11-21T12:08:06;3.35;;;1.23;;
48651;SDS011;34442;52.362;-1.302;2023-11-21T12:10:33;7.10;;;1.65;;
48651;SDS011;34442;52.362;-1.302;2023-11-21T12:13:00;3.78;;;1.20;;
48651;SDS011;34442;52.362;-1.302;2023-11-21T12:15:28;2.75;;;1.30;;
48651;SDS011;34442;52.362;-1.302;2023-11-21T12:17:55;3.58;;;1.20;;
48651;SDS011;34442;52.362;-1.302;2023-11-21T12:20:21;3.60;;;1.40;;
48651;SDS011;34442;52.362;-1.302;2023-11-21T12:25:24;2.17;;;1.38;;
48651;SDS011;34442;52.362;-1.302;2023-11-21T12:27:54;3.03;;;1.20;;
48651;SDS011;34442;52.362;-1.302;2023-11-21T12:30:23;2.03;;;1.08;;
48651;SDS011;34442;52.362;-1.302;2023-11-21T12:32:53;0.98;;;0.80;;
48651;SDS011;34442;52.362;-1.302;2023-11-21T12:35:21;2.25;;;1.13;;
48651;SDS011;34442;52.362;-1.302;2023-11-21T12:37:48;0.90;;;0.73;;
48651;SDS011;34442;52.362;-1.302;2023-11-21T12:40:17;4.63;;;1.40;;
48651;SDS011;34442;52.362;-1.302;2023-11-21T12:42:43;2.75;;;1.10;;
48651;SDS011;34442;52.362;-1.302;2023-11-21T12:47:49;4.65;;;1.70;;
48651;SDS011;34442;52.362;-1.302;2023-11-21T12:50:18;3.65;;;1.05;;
48651;SDS011;34442;52.362;-1.302;2023-11-21T12:52:46;1.20;;;0.95;;
48651;SDS011;34442;52.362;-1.302;2023-11-21T12:55:13;2.97;;;1.30;;
48651;SDS011;34442;52.362;-1.302;2023-11-21T12:57:49;1.75;;;1.00;;
48651;SDS011;34442;52.362;-1.302;2023-11-21T13:00:20;2.42;;;1.00;;
48651;SDS011;34442;52.362;-1.302;2023-11-21T13:05:26;2.22;;;1.02;;
48651;SDS011;34442;52.362;-1.302;2023-11-21T13:08:05;2.65;;;0.90;;
48651;SDS011;34442;52.362;-1.302;2023-11-21T13:10:37;3.58;;;1.20;;
48651;SDS011;34442;52.362;-1.302;2023-11-21T13:13:05;2.53;;;0.82;;
48651;SDS011;34442;52.362;-1.302;2023-11-21T13:15:33;2.40;;;1.20;;
48651;SDS011;34442;52.362;-1.302;2023-11-21T13:18:01;4.90;;;1.30;;
48651;SDS011;34442;52.362;-1.302;2023-11-21T13:20:27;4.18;;;1.15;;
48651;SDS011;34442;52.362;-1.302;2023-11-21T13:22:57;5.35;;;1.95;;
48651;SDS011;34442;52.362;-1.302;2023-11-21T13:25:24;5.60;;;1.40;;
48651;SDS011;34442;52.362;-1.302;2023-11-21T13:27:52;2.58;;;1.00;;
48651;SDS011;34442;52.362;-1.302;2023-11-21T13:30:19;1.98;;;0.95;;
48651;SDS011;34442;52.362;-1.302;2023-11-21T13:32:51;3.30;;;0.98;;
48651;SDS011;34442;52.362;-1.302;2023-11-21T13:35:17;2.83;;;1.05;;
48651;SDS011;34442;52.362;-1.302;2023-11-21T13:37:49;2.42;;;0.88;;
48651;SDS011;34442;52.362;-1.302;2023-11-21T13:40:21;1.90;;;0.90;;
48651;SDS011;34442;52.362;-1.302;2023-11-21T13:42:52;2.25;;;0.80;;
48651;SDS011;34442;52.362;-1.302;2023-11-21T13:45:21;3.67;;;0.90;;
48651;SDS011;34442;52.362;-1.302;2023-11-21T13:47:48;2.78;;;1.27;;
48651;SDS011;34442;52.362;-1.302;2023-11-21T13:50:16;2.38;;;1.13;;
48651;SDS011;34442;52.362;-1.302;2023-11-21T13:52:47;4.03;;;1.15;;
48651;SDS011;34442;52.362;-1.302;2023-11-21T13:55:14;1.23;;;0.80;;
48651;SDS011;34442;52.362;-1.302;2023-11-21T13:57:44;1.92;;;0.90;;
48651;SDS011;34442;52.362;-1.302;2023-11-21T14:00:13;2.13;;;1.05;;
48651;SDS011;34442;52.362;-1.302;2023-11-21T14:03:04;2.20;;;1.00;;
48651;SDS011;34442;52.362;-1.302;2023-11-21T14:05:42;2.95;;;1.08;;
48651;SDS011;34442;52.362;-1.302;2023-11-21T14:08:09;3.03;;;1.00;;
48651;SDS011;34442;52.362;-1.302;2023-11-21T14:10:37;1.73;;;0.95;;
48651;SDS011;34442;52.362;-1.302;2023-11-21T14:13:08;1.38;;;0.88;;
48651;SDS011;34442;52.362;-1.302;2023-11-21T14:15:40;2.20;;;1.00;;
48651;SDS011;34442;52.362;-1.302;2023-11-21T14:18:11;3.15;;;0.93;;
48651;SDS011;34442;52.362;-1.302;2023-11-21T14:20:39;2.55;;;1.05;;
48651;SDS011;34442;52.362;-1.302;2023-11-21T14:23:06;1.83;;;1.00;;
48651;SDS011;34442;52.362;-1.302;2023-11-21T14:25:34;1.70;;;1.00;;
48651;SDS011;34442;52.362;-1.302;2023-11-21T14:28:02;1.42;;;1.02;;
48651;SDS011;34442;52.362;-1.302;2023-11-21T14:30:29;1.15;;;0.88;;
48651;SDS011;34442;52.362;-1.302;2023-11-21T14:32:58;2.75;;;1.10;;
48651;SDS011;34442;52.362;-1.302;2023-11-21T14:35:24;2.60;;;1.08;;
48651;SDS011;34442;52.362;-1.302;2023-11-21T14:37:53;1.83;;;1.10;;
48651;SDS011;34442;52.362;-1.302;2023-11-21T14:40:18;2.55;;;1.10;;
48651;SDS011;34442;52.362;-1.302;2023-11-21T14:42:49;3.60;;;1.67;;
48651;SDS011;34442;52.362;-1.302;2023-11-21T14:45:17;3.35;;;1.30;;
48651;SDS011;34442;52.362;-1.302;2023-11-21T14:47:45;2.63;;;1.10;;
48651;SDS011;34442;52.362;-1.302;2023-11-21T14:50:30;2.33;;;1.10;;
48651;SDS011;34442;52.362;-1.302;2023-11-21T14:53:01;4.32;;;1.40;;
48651;SDS011;34442;52.362;-1.302;2023-11-21T14:55:31;1.48;;;0.90;;
48651;SDS011;34442;52.362;-1.302;2023-11-21T14:58:04;1.83;;;1.20;;
48651;SDS011;34442;52.362;-1.302;2023-11-21T15:00:30;2.38;;;1.08;;
48651;SDS011;34442;52.362;-1.302;2023-11-21T15:03:01;2.90;;;1.10;;